Weather reports worldwide

Advertisment
Edinburgh, United Kingdom (3160): temperature & dewpoint: 04.07.2020 03:00:00 - 10.07.2020 03:00:00 (BST)Edinburgh, United Kingdom (3160): wind speed: 04.07.2020 03:00:00 - 10.07.2020 03:00:00 (BST)Edinburgh, United Kingdom (3160): wind direction: 04.07.2020 03:00:00 - 10.07.2020 03:00:00 (BST)Edinburgh, United Kingdom (3160): visibility: 04.07.2020 03:00:00 - 10.07.2020 03:00:00 (BST)
Date & Time tt [°C] td [°C] ff [km/h] ff [kn] dd vv [km]
10.07.2020 03:00:00 11,0 10,0 5 3 WSW 10
10.07.2020 02:00:00 11,0 11,0 5 3 - 10
10.07.2020 01:00:00 11,0 11,0 4 2 WSW 5
10.07.2020 00:00:00 11,0 11,0 4 2 NNW 6
09.07.2020 23:00:00 11,0 11,0 2 1 - 10
09.07.2020 22:00:00 11,0 11,0 2 1 - 10
09.07.2020 21:00:00 13,0 12,0 4 2 NNE 10
09.07.2020 20:00:00 13,0 12,0 5 3 - 10
09.07.2020 19:00:00 12,0 12,0 8 4 E 10
09.07.2020 18:00:00 13,0 11,0 5 3 - 4,9
09.07.2020 17:00:00 13,0 12,0 11 6 N 5
09.07.2020 16:00:00 17,0 11,0 15 8 NE 10
09.07.2020 15:00:00 19,0 10,0 8 4 - 10
09.07.2020 14:00:00 18,0 10,0 9 5 NE 10
09.07.2020 13:00:00 18,0 10,0 5 3 - 10
09.07.2020 12:00:00 17,0 9,0 9 5 NNE 10
09.07.2020 11:00:00 16,0 9,0 5 3 - 10
09.07.2020 10:00:00 15,0 10,0 9 5 NE 10
09.07.2020 09:00:00 14,0 11,0 8 4 NNE 10
09.07.2020 08:00:00 13,0 11,0 5 3 - 10
09.07.2020 07:00:00 12,0 11,0 8 4 ENE 10
09.07.2020 06:00:00 10,0 10,0 5 3 NNE 10
09.07.2020 05:00:00 9,0 9,0 5 3 ENE 10
09.07.2020 04:00:00 10,0 10,0 4 2 ENE 2,4
09.07.2020 03:00:00 11,0 11,0 2 1 - 8
09.07.2020 02:00:00 11,0 11,0 4 2 WNW 10
09.07.2020 01:00:00 12,0 11,0 4 2 - 10
09.07.2020 00:00:00 12,0 11,0 4 2 NW 10
08.07.2020 23:00:00 12,0 11,0 2 1 W 10
08.07.2020 22:00:00 12,0 11,0 4 2 NE 10
08.07.2020 21:00:00 12,0 11,0 9 5 NE 10
08.07.2020 20:00:00 13,0 12,0 9 5 NNE 10
08.07.2020 19:00:00 13,0 12,0 9 5 NNE 10
08.07.2020 18:00:00 13,0 12,0 9 5 NNE 10
08.07.2020 17:00:00 13,0 10,0 15 8 NE 10
08.07.2020 16:00:00 13,0 9,0 21 11 NE 10
08.07.2020 15:00:00 13,0 9,0 18 10 NE 10
08.07.2020 14:00:00 15,0 10,0 21 11 ENE 10
08.07.2020 13:00:00 13,0 9,0 22 12 NE 10
08.07.2020 12:00:00 15,0 10,0 21 11 ENE 10
08.07.2020 11:00:00 13,0 9,0 16 9 ENE 10
08.07.2020 10:00:00 13,0 9,0 9 5 ENE 10
08.07.2020 09:00:00 12,0 10,0 13 7 E 10
08.07.2020 08:00:00 11,0 9,0 11 6 ENE 10
08.07.2020 07:00:00 11,0 10,0 11 6 ENE 10
08.07.2020 06:00:00 11,0 10,0 13 7 ENE 10
08.07.2020 05:00:00 11,0 10,0 16 9 ENE 10
08.07.2020 04:00:00 11,0 10,0 18 10 ENE 10
08.07.2020 03:00:00 11,0 10,0 18 10 NE 10
08.07.2020 02:00:00 11,0 11,0 15 8 NE 10
08.07.2020 01:00:00 12,0 11,0 13 7 NNE 10
08.07.2020 00:00:00 12,0 10,0 15 8 NE 10
07.07.2020 23:00:00 12,0 11,0 5 3 NNE 10
07.07.2020 22:00:00 12,0 11,0 5 3 - 10
07.07.2020 21:00:00 14,0 10,0 4 2 - 10
07.07.2020 20:00:00 14,0 9,0 4 2 - 10
07.07.2020 19:00:00 16,0 10,0 4 2 - 10
07.07.2020 18:00:00 17,0 9,0 4 2 - 10
07.07.2020 17:00:00 - - - - - -
07.07.2020 16:00:00 17,0 9,0 11 6 WSW 10
07.07.2020 15:00:00 15,0 9,0 15 8 W 10
07.07.2020 14:00:00 16,0 9,0 13 7 W 10
07.07.2020 13:00:00 15,0 9,0 15 8 W 10
07.07.2020 12:00:00 14,0 9,0 15 8 WSW 10
07.07.2020 11:00:00 13,0 9,0 21 11 W 10
07.07.2020 10:00:00 12,0 9,0 15 8 WSW 10
07.07.2020 09:00:00 13,0 9,0 15 8 W 10
07.07.2020 08:00:00 12,0 9,0 15 8 W 10
07.07.2020 07:00:00 12,0 9,0 13 7 W 10
07.07.2020 06:00:00 11,0 9,0 11 6 WSW 10
07.07.2020 05:00:00 10,0 8,0 15 8 WSW 10
07.07.2020 04:00:00 10,0 8,0 18 10 WSW 10
07.07.2020 03:00:00 9,0 7,0 16 9 WSW 10
07.07.2020 02:00:00 11,0 9,0 15 8 WSW 10
07.07.2020 01:00:00 10,0 8,0 16 9 WSW 10
07.07.2020 00:00:00 10,0 7,0 15 8 WSW 10
06.07.2020 23:00:00 11,0 7,0 15 8 W 10
06.07.2020 22:00:00 12,0 7,0 18 10 W 10
06.07.2020 21:00:00 13,0 7,0 21 11 W 10
06.07.2020 20:00:00 14,0 7,0 22 12 W 10
06.07.2020 19:00:00 14,0 7,0 22 12 W 10
06.07.2020 18:00:00 - - - - - -
06.07.2020 17:00:00 17,0 8,0 24 13 W 10
06.07.2020 16:00:00 17,0 8,0 22 12 W 10
06.07.2020 15:00:00 17,0 7,0 18 10 W 10
06.07.2020 14:00:00 16,0 7,0 16 9 W 10
06.07.2020 13:00:00 17,0 8,0 15 8 WNW 10
06.07.2020 12:00:00 16,0 8,0 13 7 W 10
06.07.2020 11:00:00 15,0 8,0 13 7 WNW 10
06.07.2020 10:00:00 14,0 8,0 13 7 WNW 10
06.07.2020 09:00:00 15,0 9,0 16 9 W 10
06.07.2020 08:00:00 13,0 8,0 13 7 W 10
06.07.2020 07:00:00 12,0 8,0 16 9 W 10
06.07.2020 06:00:00 9,0 9,0 9 5 WSW 10
06.07.2020 05:00:00 10,0 9,0 11 6 W 10
06.07.2020 04:00:00 11,0 9,0 13 7 W 10
06.07.2020 03:00:00 11,0 9,0 22 12 WSW 10
06.07.2020 02:00:00 11,0 8,0 16 9 W 10
06.07.2020 01:00:00 11,0 8,0 21 11 W 10
06.07.2020 00:00:00 11,0 8,0 21 11 WSW 10
05.07.2020 23:00:00 11,0 8,0 18 10 WSW 10
05.07.2020 22:00:00 11,0 8,0 24 13 W 10
05.07.2020 21:00:00 12,0 9,0 22 12 W 10
05.07.2020 20:00:00 12,0 9,0 21 11 WSW 10
05.07.2020 19:00:00 13,0 11,0 15 8 WSW 10
05.07.2020 18:00:00 13,0 10,0 24 13 WSW 10
05.07.2020 17:00:00 11,0 8,0 28 15 W 10
05.07.2020 16:00:00 14,0 9,0 34 18 WSW 10
05.07.2020 15:00:00 14,0 10,0 37 20 WSW 10
05.07.2020 14:00:00 15,0 10,0 35 19 WSW 10
05.07.2020 13:00:00 14,0 11,0 28 15 WSW 10
05.07.2020 12:00:00 14,0 10,0 39 21 WSW 10
05.07.2020 11:00:00 15,0 8,0 42 23 WSW 10
05.07.2020 10:00:00 14,0 9,0 39 21 WSW 10
05.07.2020 09:00:00 13,0 9,0 34 18 WSW 10
05.07.2020 08:00:00 14,0 10,0 29 16 W 10
05.07.2020 07:00:00 14,0 11,0 31 17 WSW 10
05.07.2020 06:00:00 13,0 10,0 29 16 WSW 10
05.07.2020 05:00:00 13,0 10,0 31 17 WSW 10
05.07.2020 04:00:00 14,0 11,0 48 26 WSW 10
05.07.2020 03:00:00 15,0 14,0 34 18 WSW 10
05.07.2020 02:00:00 16,0 15,0 35 19 SW 5
05.07.2020 01:00:00 16,0 15,0 26 14 SW 10
05.07.2020 00:00:00 15,0 15,0 24 13 SW 4,8
04.07.2020 23:00:00 15,0 14,0 5 3 - 10
04.07.2020 22:00:00 14,0 13,0 9 5 E 10
04.07.2020 21:00:00 15,0 12,0 5 3 - 10
04.07.2020 20:00:00 15,0 11,0 9 5 SSW 10
04.07.2020 19:00:00 16,0 11,0 13 7 SW 10
04.07.2020 18:00:00 15,0 11,0 13 7 WSW 10
04.07.2020 17:00:00 15,0 11,0 11 6 W 10
04.07.2020 16:00:00 16,0 12,0 21 11 SW 10
04.07.2020 15:00:00 15,0 12,0 16 9 WSW 10
04.07.2020 14:00:00 14,0 12,0 13 7 W 10
04.07.2020 13:00:00 13,0 12,0 5 3 - 6
04.07.2020 12:00:00 12,0 11,0 11 6 WNW 6
04.07.2020 11:00:00 13,0 11,0 11 6 W 10
04.07.2020 10:00:00 14,0 10,0 13 7 WSW 10
04.07.2020 09:00:00 - - - - - -
04.07.2020 08:00:00 12,0 11,0 9 5 WSW 10
04.07.2020 07:00:00 11,0 10,0 11 6 SW 10
04.07.2020 06:00:00 10,0 9,0 5 3 W 10
04.07.2020 05:00:00 10,0 9,0 4 2 - 10
04.07.2020 04:00:00 10,0 9,0 5 3 WNW 10
04.07.2020 03:00:00 10,0 9,0 4 2 - 10

tt = temperature
td = dewpoint
ff = wind speed
dd = wind direction
vv = visibility

Next stations